createdAt,value
2019-02-09T00:01:39.920Z,15.30
2019-02-09T00:04:10.338Z,19.30
2019-02-09T00:06:41.062Z,15.13
2019-02-09T00:09:12.425Z,18.13
2019-02-09T00:11:42.880Z,15.27
2019-02-09T00:14:13.260Z,16.53
2019-02-09T00:16:43.624Z,17.40
2019-02-09T00:19:14.101Z,15.83
2019-02-09T00:21:44.814Z,15.97
2019-02-09T00:24:15.222Z,18.10
2019-02-09T00:26:45.615Z,19.73
2019-02-09T00:29:16.068Z,15.97
2019-02-09T00:31:46.531Z,17.70
2019-02-09T00:34:16.893Z,17.47
2019-02-09T00:36:47.193Z,17.40
2019-02-09T00:39:17.749Z,18.50
2019-02-09T00:41:48.508Z,16.37
2019-02-09T00:44:18.980Z,17.07
2019-02-09T00:46:49.416Z,15.73
2019-02-09T00:49:20.142Z,18.07
2019-02-09T00:51:50.570Z,14.60
2019-02-09T00:54:21.335Z,16.40
2019-02-09T00:56:51.933Z,18.30
2019-02-09T00:59:22.332Z,16.83
2019-02-09T01:01:52.745Z,17.40
2019-02-09T01:04:23.201Z,19.17
2019-02-09T01:06:53.772Z,19.83
2019-02-09T01:09:24.270Z,16.93
2019-02-09T01:11:54.703Z,15.83
2019-02-09T01:14:25.473Z,18.03
2019-02-09T01:16:56.222Z,16.03
2019-02-09T01:19:26.648Z,20.73
2019-02-09T01:21:57.355Z,20.67
2019-02-09T01:24:28.164Z,18.80
2019-02-09T01:26:58.617Z,21.30
2019-02-09T01:29:28.977Z,20.43
2019-02-09T01:31:59.444Z,20.80
2019-02-09T01:34:29.924Z,19.33
2019-02-09T01:37:00.767Z,21.63
2019-02-09T01:39:31.223Z,20.60
2019-02-09T01:42:01.671Z,18.43
2019-02-09T01:44:32.092Z,21.07
2019-02-09T01:47:02.522Z,22.43
2019-02-09T01:49:33.353Z,17.60
2019-02-09T01:52:04.726Z,21.10
2019-02-09T01:54:35.072Z,24.47
2019-02-09T01:57:05.562Z,21.90
2019-02-09T01:59:35.863Z,20.73
2019-02-09T02:02:07.000Z,18.07
2019-02-09T02:04:37.346Z,19.63
2019-02-09T02:07:07.967Z,19.30
2019-02-09T02:09:38.341Z,22.83
2019-02-09T02:12:09.256Z,18.77
2019-02-09T02:14:39.729Z,20.97
2019-02-09T02:17:10.616Z,21.40
2019-02-09T02:19:41.268Z,22.87
2019-02-09T02:22:11.905Z,22.53
2019-02-09T02:24:42.352Z,31.10
2019-02-09T02:27:12.872Z,22.03
2019-02-09T02:29:43.291Z,21.47
2019-02-09T02:32:14.064Z,20.17
2019-02-09T02:34:44.726Z,20.73
2019-02-09T02:37:15.235Z,21.03
2019-02-09T02:39:45.677Z,24.40
2019-02-09T02:42:16.462Z,27.20
2019-02-09T02:44:46.903Z,23.77
2019-02-09T02:47:17.677Z,23.93
2019-02-09T02:49:48.493Z,22.30
2019-02-09T02:52:18.884Z,22.23
2019-02-09T02:54:49.310Z,24.70
2019-02-09T02:57:20.155Z,24.23
2019-02-09T02:59:50.633Z,22.33
2019-02-09T03:02:21.334Z,21.60
2019-02-09T03:04:51.695Z,20.30
2019-02-09T03:07:22.211Z,21.17
2019-02-09T03:09:52.621Z,21.87
2019-02-09T03:12:22.985Z,23.67
2019-02-09T03:14:53.373Z,20.90
2019-02-09T03:17:23.691Z,23.00
2019-02-09T03:19:54.079Z,19.47
2019-02-09T03:22:24.391Z,22.57
2019-02-09T03:24:54.753Z,19.67
2019-02-09T03:27:26.312Z,22.77
2019-02-09T03:29:56.778Z,22.17
2019-02-09T03:32:27.180Z,19.03
2019-02-09T03:34:57.508Z,20.90
2019-02-09T03:37:27.961Z,20.00
2019-02-09T03:39:58.215Z,19.17
2019-02-09T03:42:28.710Z,19.07
2019-02-09T03:44:59.087Z,21.30
2019-02-09T03:47:29.478Z,20.97
2019-02-09T03:49:59.833Z,19.87
2019-02-09T03:52:30.202Z,19.17
2019-02-09T03:55:00.577Z,19.27
2019-02-09T03:57:31.051Z,21.47
2019-02-09T04:00:01.847Z,21.43
2019-02-09T04:02:32.607Z,20.53
2019-02-09T04:05:03.373Z,22.30
2019-02-09T04:07:33.784Z,22.33
2019-02-09T04:10:05.340Z,18.13
2019-02-09T04:12:35.603Z,20.63
2019-02-09T04:15:08.116Z,19.40
2019-02-09T04:17:38.732Z,16.90
2019-02-09T04:20:11.459Z,17.63
2019-02-09T04:22:41.961Z,19.93
2019-02-09T04:25:14.062Z,18.30
2019-02-09T04:27:44.728Z,19.67
2019-02-09T04:30:24.302Z,21.63
2019-02-09T04:32:55.130Z,21.93
2019-02-09T04:35:25.825Z,16.67
2019-02-09T04:37:56.332Z,16.87
2019-02-09T04:40:29.423Z,19.33
2019-02-09T04:43:00.437Z,21.33
2019-02-09T04:45:31.201Z,16.87
2019-02-09T04:48:01.942Z,17.47
2019-02-09T04:50:32.743Z,19.00
2019-02-09T04:53:03.315Z,18.43
2019-02-09T04:55:33.838Z,17.80
2019-02-09T04:58:04.501Z,18.10
2019-02-09T05:00:35.232Z,20.33
2019-02-09T05:03:06.288Z,17.03
2019-02-09T05:05:36.775Z,17.00
2019-02-09T05:08:07.202Z,14.93
2019-02-09T05:10:37.533Z,15.67
2019-02-09T05:13:07.939Z,14.87
2019-02-09T05:15:38.620Z,15.17
2019-02-09T05:18:09.195Z,15.13
2019-02-09T05:20:40.111Z,14.43
2019-02-09T05:23:10.594Z,17.00
2019-02-09T05:25:40.905Z,13.53
2019-02-09T05:28:11.531Z,13.90
2019-02-09T05:30:42.339Z,11.60
2019-02-09T05:33:12.713Z,13.67
2019-02-09T05:35:42.996Z,14.87
2019-02-09T05:38:13.139Z,12.60
2019-02-09T05:40:43.474Z,15.07
2019-02-09T05:43:13.834Z,14.60
2019-02-09T05:45:44.400Z,15.53
2019-02-09T05:48:14.583Z,14.83
2019-02-09T05:50:45.172Z,13.63
2019-02-09T05:53:15.435Z,16.00
2019-02-09T05:55:45.823Z,16.87
2019-02-09T05:58:16.301Z,14.60
2019-02-09T06:00:46.510Z,15.97
2019-02-09T06:03:16.632Z,17.37
2019-02-09T06:05:47.242Z,14.83
2019-02-09T06:08:17.353Z,13.07
2019-02-09T06:10:47.547Z,14.63
2019-02-09T06:13:17.813Z,14.47
2019-02-09T06:15:48.180Z,13.90
2019-02-09T06:18:18.437Z,15.33
2019-02-09T06:20:48.699Z,16.03
2019-02-09T06:23:19.276Z,15.87
2019-02-09T06:25:49.654Z,22.43
2019-02-09T06:28:19.853Z,24.70
2019-02-09T06:30:50.460Z,23.03
2019-02-09T06:33:20.827Z,21.53
2019-02-09T06:35:51.182Z,25.87
2019-02-09T06:38:21.320Z,23.17
2019-02-09T06:40:51.611Z,20.00
2019-02-09T06:43:21.815Z,24.67
2019-02-09T06:45:52.497Z,20.80
2019-02-09T06:48:26.658Z,20.37
2019-02-09T06:50:59.406Z,24.23
2019-02-09T06:53:29.699Z,25.33
2019-02-09T06:56:00.036Z,21.57
2019-02-09T06:58:30.247Z,23.00
2019-02-09T07:01:00.454Z,20.40
2019-02-09T07:03:30.739Z,21.77
2019-02-09T07:06:01.019Z,25.73
2019-02-09T07:08:31.341Z,20.27
2019-02-09T07:11:01.882Z,24.37
2019-02-09T07:13:32.724Z,24.80
2019-02-09T07:16:03.186Z,21.13
2019-02-09T07:18:33.555Z,20.40
2019-02-09T07:21:03.833Z,21.97
2019-02-09T07:23:34.000Z,18.97
2019-02-09T07:26:04.456Z,20.27
2019-02-09T07:28:34.687Z,23.63
2019-02-09T07:31:05.429Z,25.47
2019-02-09T07:33:36.096Z,25.83
2019-02-09T07:36:07.337Z,27.37
2019-02-09T07:38:37.696Z,27.40
2019-02-09T07:41:08.122Z,28.17
2019-02-09T07:43:38.517Z,31.47
2019-02-09T07:46:09.108Z,26.33
2019-02-09T07:48:39.341Z,21.37
2019-02-09T07:51:09.691Z,24.13
2019-02-09T07:53:39.828Z,22.70
2019-02-09T07:56:10.169Z,19.40
2019-02-09T07:58:40.388Z,18.47
2019-02-09T08:01:10.773Z,13.77
2019-02-09T08:03:40.973Z,17.87
2019-02-09T08:06:11.258Z,15.50
2019-02-09T08:08:41.579Z,11.63
2019-02-09T08:11:12.427Z,12.30
2019-02-09T08:13:42.805Z,12.30
2019-02-09T08:16:12.946Z,11.33
2019-02-09T08:18:43.274Z,14.40
2019-02-09T08:21:13.748Z,11.13
2019-02-09T08:23:44.107Z,12.10
2019-02-09T08:26:14.768Z,10.87
2019-02-09T08:28:45.402Z,11.30
2019-02-09T08:31:15.910Z,12.13
2019-02-09T08:33:46.030Z,12.73
2019-02-09T08:36:16.377Z,10.37
2019-02-09T08:38:46.592Z,10.13
2019-02-09T08:41:16.999Z,12.03
2019-02-09T08:43:47.208Z,10.63
2019-02-09T08:46:17.910Z,13.57
2019-02-09T08:48:48.266Z,12.97
2019-02-09T08:51:18.622Z,14.43
2019-02-09T08:53:48.766Z,12.83
2019-02-09T08:56:18.981Z,8.50
2019-02-09T08:58:49.113Z,10.93
2019-02-09T09:01:19.867Z,11.90
2019-02-09T09:03:50.016Z,10.67
2019-02-09T09:06:20.365Z,12.40
2019-02-09T09:08:50.891Z,11.53
2019-02-09T09:11:21.041Z,13.23
2019-02-09T09:13:51.168Z,15.60
2019-02-09T09:16:21.422Z,11.57
2019-02-09T09:18:51.872Z,13.47
2019-02-09T09:21:22.202Z,12.07
2019-02-09T09:23:52.433Z,9.13
2019-02-09T09:26:22.767Z,9.80
2019-02-09T09:28:53.520Z,9.73
2019-02-09T09:31:23.862Z,11.07
2019-02-09T09:33:54.215Z,11.70
2019-02-09T09:36:24.519Z,9.47
2019-02-09T09:38:54.656Z,16.70
2019-02-09T09:41:24.983Z,9.87
2019-02-09T09:43:55.475Z,9.33
2019-02-09T09:46:25.805Z,8.53
2019-02-09T09:48:56.312Z,8.67
2019-02-09T09:51:26.959Z,9.10
2019-02-09T09:53:57.411Z,8.10
2019-02-09T09:56:27.881Z,6.97
2019-02-09T09:58:58.199Z,7.20
2019-02-09T10:01:28.581Z,9.60
2019-02-09T10:03:58.780Z,8.30
2019-02-09T10:06:29.162Z,9.83
2019-02-09T10:08:59.647Z,7.67
2019-02-09T10:11:30.295Z,6.30
2019-02-09T10:14:07.720Z,7.80
2019-02-09T10:16:32.461Z,7.33
2019-02-09T10:19:02.734Z,7.00
2019-02-09T10:21:33.276Z,5.63
2019-02-09T10:24:03.615Z,7.17
2019-02-09T10:26:34.002Z,5.97
2019-02-09T10:29:04.348Z,5.27
2019-02-09T10:31:35.306Z,6.00
2019-02-09T10:34:05.807Z,5.53
2019-02-09T10:36:36.241Z,7.00
2019-02-09T10:39:10.250Z,7.67
2019-02-09T10:41:40.529Z,6.23
2019-02-09T10:44:11.064Z,10.50
2019-02-09T10:46:41.451Z,6.30
2019-02-09T10:49:11.665Z,6.83
2019-02-09T10:51:42.227Z,8.57
2019-02-09T10:54:12.505Z,5.03
2019-02-09T10:56:43.279Z,7.57
2019-02-09T10:59:13.820Z,5.80
2019-02-09T11:01:44.825Z,6.17
2019-02-09T11:04:15.462Z,5.30
2019-02-09T11:06:45.740Z,4.03
2019-02-09T11:09:21.545Z,4.90
2019-02-09T11:11:52.015Z,5.40
2019-02-09T11:14:22.293Z,6.60
2019-02-09T11:16:52.637Z,5.37
2019-02-09T11:19:22.821Z,4.63
2019-02-09T11:21:52.945Z,4.23
2019-02-09T11:24:23.123Z,5.40
2019-02-09T11:26:53.502Z,4.90
2019-02-09T11:29:23.955Z,3.97
2019-02-09T11:31:54.444Z,4.83
2019-02-09T11:34:24.811Z,6.37
2019-02-09T11:36:55.121Z,6.20
2019-02-09T11:39:25.274Z,5.40
2019-02-09T11:41:55.569Z,5.27
2019-02-09T11:44:25.836Z,6.00
2019-02-09T11:46:56.208Z,5.90
2019-02-09T11:49:26.325Z,6.70
2019-02-09T11:51:56.610Z,3.47
2019-02-09T11:54:26.816Z,4.63
2019-02-09T11:56:56.988Z,4.33
2019-02-09T11:59:27.200Z,5.10
2019-02-09T12:01:57.500Z,4.50
2019-02-09T12:04:27.614Z,7.30
2019-02-09T12:06:58.182Z,5.67
2019-02-09T12:09:28.317Z,4.53
2019-02-09T12:11:58.774Z,7.27
2019-02-09T12:14:28.902Z,11.37
2019-02-09T12:16:59.805Z,6.53
2019-02-09T12:19:29.917Z,7.17
2019-02-09T12:22:00.096Z,4.83
2019-02-09T12:24:30.302Z,5.20
2019-02-09T12:27:00.653Z,3.50
2019-02-09T12:29:30.866Z,5.80
2019-02-09T12:32:01.256Z,5.03
2019-02-09T12:34:31.674Z,7.37
2019-02-09T12:37:02.038Z,7.13
2019-02-09T12:39:32.250Z,3.80
2019-02-09T12:42:02.699Z,8.67
2019-02-09T12:44:32.987Z,5.77
2019-02-09T12:47:03.209Z,5.67
2019-02-09T12:49:33.336Z,6.17
2019-02-09T12:52:03.603Z,3.87
2019-02-09T12:54:33.734Z,3.20
2019-02-09T12:57:04.025Z,7.17
2019-02-09T12:59:34.475Z,6.43
2019-02-09T13:02:04.899Z,4.13
2019-02-09T13:04:35.191Z,4.23
2019-02-09T13:07:05.807Z,5.53
2019-02-09T13:09:37.707Z,3.87
2019-02-09T13:12:07.902Z,4.43
2019-02-09T13:14:38.125Z,3.37
2019-02-09T13:17:08.572Z,3.97
2019-02-09T13:19:38.776Z,3.40
2019-02-09T13:22:09.852Z,5.00
2019-02-09T13:24:40.143Z,7.73
2019-02-09T13:27:10.918Z,4.53
2019-02-09T13:29:41.407Z,5.00
2019-02-09T13:32:11.681Z,3.90
2019-02-09T13:34:42.072Z,4.37
2019-02-09T13:37:12.261Z,3.33
2019-02-09T13:39:42.418Z,4.97
2019-02-09T13:42:13.342Z,5.60
2019-02-09T13:44:43.645Z,6.73
2019-02-09T13:47:14.091Z,3.20
2019-02-09T13:49:44.480Z,4.27
2019-02-09T13:54:28.456Z,4.87
2019-02-09T13:57:00.399Z,5.17
2019-02-09T13:59:31.773Z,2.87
2019-02-09T14:02:03.376Z,7.17
2019-02-09T14:04:34.772Z,3.20
2019-02-09T14:07:06.530Z,3.40
2019-02-09T14:09:38.338Z,3.80
2019-02-09T14:12:09.701Z,10.33
2019-02-09T14:14:41.102Z,4.73
2019-02-09T14:17:12.599Z,6.17
2019-02-09T14:19:43.772Z,6.00
2019-02-09T14:22:15.220Z,4.80
2019-02-09T14:24:46.732Z,5.13
2019-02-09T14:27:19.997Z,6.57
2019-02-09T14:29:51.536Z,4.00
2019-02-09T14:32:23.053Z,5.37
2019-02-09T14:34:54.385Z,3.33
2019-02-09T14:37:25.965Z,3.93
2019-02-09T14:39:57.361Z,5.60
2019-02-09T14:42:29.763Z,9.53
2019-02-09T14:45:01.125Z,5.33
2019-02-09T14:47:32.600Z,4.83
2019-02-09T14:50:11.086Z,9.33
2019-02-09T14:52:37.875Z,6.73
2019-02-09T14:55:11.671Z,6.97
2019-02-09T14:57:43.326Z,6.17
2019-02-09T15:00:19.384Z,5.63
2019-02-09T15:02:53.903Z,3.67
2019-02-09T15:05:25.478Z,3.90
2019-02-09T15:07:56.869Z,5.13
2019-02-09T15:10:28.436Z,5.53
2019-02-09T15:13:00.157Z,4.53
2019-02-09T15:15:35.534Z,5.37
2019-02-09T15:18:08.988Z,4.67
2019-02-09T15:20:45.489Z,7.20
2019-02-09T15:23:17.151Z,4.33
2019-02-09T15:25:48.591Z,7.97
2019-02-09T15:28:20.432Z,5.63
2019-02-09T15:30:52.014Z,4.77
2019-02-09T15:33:23.439Z,9.23
2019-02-09T15:35:54.918Z,6.67
2019-02-09T15:38:26.679Z,8.87
2019-02-09T15:40:58.174Z,8.83
2019-02-09T15:43:29.543Z,4.87
2019-02-09T15:46:02.166Z,4.60
2019-02-09T15:48:33.689Z,7.83
2019-02-09T15:51:05.057Z,9.60
2019-02-09T15:53:36.898Z,6.30
2019-02-09T15:56:08.345Z,4.87
2019-02-09T15:58:39.683Z,5.43
2019-02-09T16:01:11.127Z,4.43
2019-02-09T16:03:42.847Z,3.40
2019-02-09T16:06:14.398Z,5.57
2019-02-09T16:08:45.811Z,6.70
2019-02-09T16:11:17.292Z,4.67
2019-02-09T16:13:49.866Z,8.53
2019-02-09T16:16:21.380Z,8.67
2019-02-09T16:18:52.842Z,8.80
2019-02-09T16:21:24.194Z,14.20
2019-02-09T16:23:55.840Z,8.53
2019-02-09T16:26:27.351Z,24.40
2019-02-09T16:28:58.666Z,29.50
2019-02-09T16:31:30.096Z,19.83
2019-02-09T16:34:01.592Z,20.87
2019-02-09T16:36:33.082Z,18.33
2019-02-09T16:39:07.121Z,12.40
2019-02-09T16:41:40.131Z,40.47
2019-02-09T16:44:11.521Z,29.43
2019-02-09T16:46:42.871Z,17.00
2019-02-09T16:49:14.217Z,39.73
2019-02-09T16:51:45.675Z,16.60
2019-02-09T16:54:17.073Z,17.77
2019-02-09T16:56:48.518Z,10.50
2019-02-09T16:59:19.837Z,23.20
2019-02-09T17:01:51.374Z,22.47
2019-02-09T17:04:22.842Z,17.33
2019-02-09T17:06:54.338Z,17.07
2019-02-09T17:09:25.667Z,18.17
2019-02-09T17:11:57.112Z,22.13
2019-02-09T17:14:28.411Z,28.10
2019-02-09T17:16:59.806Z,22.00
2019-02-09T17:19:31.242Z,23.70
2019-02-09T17:22:02.542Z,21.03
2019-02-09T17:24:33.955Z,22.00
2019-02-09T17:27:06.020Z,14.50
2019-02-09T17:29:37.428Z,23.90
2019-02-09T17:32:30.774Z,21.67
2019-02-09T17:35:02.276Z,18.20
2019-02-09T17:37:34.188Z,20.70
2019-02-09T17:40:07.836Z,16.63
2019-02-09T17:42:39.335Z,14.43
2019-02-09T17:45:16.298Z,13.50
2019-02-09T17:47:47.861Z,14.13
2019-02-09T17:50:19.345Z,14.20
2019-02-09T17:52:51.016Z,15.87
2019-02-09T17:55:23.434Z,12.70
2019-02-09T17:57:55.753Z,16.47
2019-02-09T18:00:33.937Z,14.63
2019-02-09T18:03:05.543Z,10.27
2019-02-09T18:05:37.293Z,13.00
2019-02-09T18:08:09.333Z,13.60
2019-02-09T18:10:40.784Z,13.57
2019-02-09T18:13:12.288Z,14.73
2019-02-09T18:15:43.715Z,11.90
2019-02-09T18:18:15.152Z,12.80
2019-02-09T18:20:46.668Z,12.03
2019-02-09T18:23:18.102Z,12.13
2019-02-09T18:25:49.506Z,12.03
2019-02-09T18:28:21.361Z,22.50
2019-02-09T18:30:52.874Z,21.77
2019-02-09T18:33:24.707Z,18.43
2019-02-09T18:35:56.236Z,12.33
2019-02-09T18:38:27.572Z,14.33
2019-02-09T18:40:58.955Z,23.10
2019-02-09T18:43:30.603Z,20.23
2019-02-09T18:46:02.515Z,27.80
2019-02-09T18:48:34.302Z,24.87
2019-02-09T18:51:06.061Z,18.13
2019-02-09T18:53:37.420Z,14.10
2019-02-09T18:56:08.914Z,15.37
2019-02-09T18:58:40.316Z,19.67
2019-02-09T19:01:13.030Z,20.47
2019-02-09T19:03:44.859Z,35.60
2019-02-09T19:06:16.367Z,29.37
2019-02-09T19:08:47.875Z,31.43
2019-02-09T19:11:19.250Z,33.70
2019-02-09T19:13:50.922Z,26.40
2019-02-09T19:16:23.420Z,33.10
2019-02-09T19:18:55.656Z,26.90
2019-02-09T19:21:27.192Z,18.33
2019-02-09T19:23:59.269Z,21.10
2019-02-09T19:26:30.729Z,24.30
2019-02-09T19:29:02.091Z,18.80
2019-02-09T19:31:33.592Z,19.47
2019-02-09T19:34:05.378Z,20.77
2019-02-09T19:36:36.890Z,22.47
2019-02-09T19:39:10.894Z,19.70
2019-02-09T19:41:42.734Z,19.67
2019-02-09T19:44:14.178Z,15.30
2019-02-09T19:46:45.655Z,15.17
2019-02-09T19:49:17.462Z,10.90
2019-02-09T19:51:48.896Z,12.23
2019-02-09T19:54:20.257Z,13.13
2019-02-09T19:56:51.884Z,12.87
2019-02-09T19:59:23.318Z,12.70
2019-02-09T20:01:54.574Z,12.90
2019-02-09T20:04:25.900Z,12.27
2019-02-09T20:06:57.205Z,13.13
2019-02-09T20:09:28.540Z,17.50
2019-02-09T20:11:59.770Z,13.50
2019-02-09T20:14:31.383Z,17.67
2019-02-09T20:17:02.653Z,14.43
2019-02-09T20:19:34.052Z,14.93
2019-02-09T20:22:05.540Z,17.23
2019-02-09T20:24:36.850Z,18.77
2019-02-09T20:27:08.378Z,16.70
2019-02-09T20:29:39.627Z,15.97
2019-02-09T20:32:11.383Z,11.47
2019-02-09T20:34:42.716Z,12.70
2019-02-09T20:37:14.055Z,12.27
2019-02-09T20:39:46.093Z,13.07
2019-02-09T20:42:18.999Z,12.47
2019-02-09T20:44:50.571Z,15.30
2019-02-09T20:47:21.836Z,13.50
2019-02-09T20:49:53.415Z,11.83
2019-02-09T20:52:24.934Z,17.20
2019-02-09T20:54:56.480Z,13.87
2019-02-09T20:57:27.920Z,11.10
2019-02-09T20:59:59.096Z,12.03
2019-02-09T21:02:30.499Z,13.27
2019-02-09T21:05:01.747Z,14.00
2019-02-09T21:07:33.067Z,9.50
2019-02-09T21:10:04.969Z,10.40
2019-02-09T21:12:36.351Z,11.53
2019-02-09T21:15:09.293Z,12.47
2019-02-09T21:17:41.118Z,12.20
2019-02-09T21:20:12.972Z,12.07
2019-02-09T21:22:44.279Z,12.57
2019-02-09T21:25:22.328Z,9.63
2019-02-09T21:27:54.068Z,9.03
2019-02-09T21:30:25.877Z,12.87
2019-02-09T21:32:57.795Z,11.37
2019-02-09T21:35:30.590Z,9.43
2019-02-09T21:38:02.057Z,9.57
2019-02-09T21:40:33.661Z,15.63
2019-02-09T21:43:05.080Z,13.80
2019-02-09T21:45:36.508Z,14.83
2019-02-09T21:48:07.983Z,12.67
2019-02-09T21:50:39.609Z,11.20
2019-02-09T21:53:12.122Z,13.50
2019-02-09T21:55:43.771Z,13.17
2019-02-09T21:58:15.018Z,10.00
2019-02-09T22:00:46.601Z,10.30
2019-02-09T22:03:17.837Z,10.53
2019-02-09T22:05:51.929Z,12.30
2019-02-09T22:08:22.226Z,11.47
2019-02-09T22:10:53.545Z,12.07
2019-02-09T22:13:25.555Z,13.53
2019-02-09T22:15:56.720Z,13.37
2019-02-09T22:18:29.261Z,11.67
2019-02-09T22:21:00.641Z,9.80
2019-02-09T22:23:31.978Z,9.23
2019-02-09T22:26:03.199Z,12.23
2019-02-09T22:28:34.390Z,12.60
2019-02-09T22:31:06.953Z,12.67
2019-02-09T22:33:38.394Z,12.97
2019-02-09T22:36:09.651Z,14.97
2019-02-09T22:38:40.848Z,8.77
2019-02-09T22:41:12.019Z,11.97
2019-02-09T22:43:43.194Z,12.57
2019-02-09T22:46:14.912Z,12.67
2019-02-09T22:48:46.179Z,11.60
2019-02-09T22:51:17.750Z,10.03
2019-02-09T22:53:48.933Z,9.47
2019-02-09T22:56:20.194Z,14.83
2019-02-09T22:58:51.471Z,15.03
2019-02-09T23:01:34.183Z,12.80
2019-02-09T23:04:39.945Z,13.17
2019-02-09T23:07:15.692Z,10.33
2019-02-09T23:09:46.990Z,9.03
2019-02-09T23:12:18.696Z,8.20
2019-02-09T23:14:50.017Z,12.53
2019-02-09T23:17:22.322Z,10.40
2019-02-09T23:19:53.505Z,9.93
2019-02-09T23:22:24.804Z,8.57
2019-02-09T23:24:56.127Z,13.67
2019-02-09T23:27:27.424Z,9.23
2019-02-09T23:29:58.771Z,7.27
2019-02-09T23:32:30.066Z,9.90
2019-02-09T23:35:01.229Z,8.63
2019-02-09T23:37:32.534Z,12.33
2019-02-09T23:40:04.273Z,9.37
2019-02-09T23:42:35.801Z,9.07
2019-02-09T23:45:07.444Z,9.47
2019-02-09T23:47:39.114Z,7.67
2019-02-09T23:50:10.571Z,11.80
2019-02-09T23:52:42.075Z,7.83
2019-02-09T23:55:13.314Z,8.43
2019-02-09T23:57:45.905Z,7.83
